createdAt,value
2022-11-21T00:01:30.980Z,62.93
2022-11-21T00:04:03.004Z,64.10
2022-11-21T00:06:31.972Z,59.23
2022-11-21T00:09:00.900Z,67.27
2022-11-21T00:11:29.511Z,65.73
2022-11-21T00:13:57.925Z,67.07
2022-11-21T00:16:25.906Z,67.40
2022-11-21T00:18:59.247Z,70.60
2022-11-21T00:21:27.297Z,68.37
2022-11-21T00:23:56.008Z,67.67
2022-11-21T00:26:24.074Z,70.33
2022-11-21T00:28:52.934Z,72.30
2022-11-21T00:31:25.270Z,67.80
2022-11-21T00:33:53.848Z,70.37
2022-11-21T00:36:23.138Z,69.70
2022-11-21T00:38:51.930Z,71.17
2022-11-21T00:41:20.884Z,67.37
2022-11-21T00:43:52.956Z,65.80
2022-11-21T00:46:21.046Z,69.57
2022-11-21T00:48:48.984Z,71.07
2022-11-21T00:51:17.997Z,67.27
2022-11-21T00:53:47.952Z,71.00
2022-11-21T00:56:16.885Z,67.90
2022-11-21T00:58:44.969Z,74.00
2022-11-21T01:01:16.729Z,70.97
2022-11-21T01:03:46.261Z,69.77
2022-11-21T01:06:15.957Z,71.60
2022-11-21T01:08:51.043Z,68.10
2022-11-21T01:11:20.935Z,72.20
2022-11-21T01:13:49.936Z,71.93
2022-11-21T01:16:20.459Z,77.27
2022-11-21T01:18:50.660Z,71.13
2022-11-21T01:21:20.859Z,70.83
2022-11-21T01:23:50.968Z,73.23
2022-11-21T01:26:24.439Z,74.57
2022-11-21T01:28:52.853Z,70.33
2022-11-21T01:31:23.975Z,74.03
2022-11-21T01:33:52.973Z,70.77
2022-11-21T01:36:26.587Z,70.27
2022-11-21T01:38:58.021Z,71.53
2022-11-21T01:41:29.968Z,75.03
2022-11-21T01:44:02.001Z,72.50
2022-11-21T01:46:30.079Z,73.80
2022-11-21T01:49:04.099Z,71.23
2022-11-21T01:51:40.855Z,72.80
2022-11-21T01:54:19.055Z,72.37
2022-11-21T01:56:52.099Z,71.07
2022-11-21T01:59:25.747Z,74.93
2022-11-21T02:01:56.616Z,71.03
2022-11-21T02:04:33.528Z,75.73
2022-11-21T02:07:04.160Z,70.77
2022-11-21T02:09:36.964Z,71.20
2022-11-21T02:12:10.861Z,71.10
2022-11-21T02:14:41.288Z,70.23
2022-11-21T02:17:12.326Z,69.20
2022-11-21T02:19:51.954Z,74.43
2022-11-21T02:22:33.015Z,73.80
2022-11-21T02:25:12.976Z,67.97
2022-11-21T02:27:45.199Z,73.73
2022-11-21T02:30:14.012Z,75.10
2022-11-21T02:32:46.786Z,71.67
2022-11-21T02:35:20.447Z,78.13
2022-11-21T02:37:53.001Z,68.57
2022-11-21T02:40:29.573Z,74.30
2022-11-21T02:43:04.993Z,67.80
2022-11-21T02:45:40.838Z,66.90
2022-11-21T02:48:09.171Z,71.30
2022-11-21T02:50:38.859Z,69.23
2022-11-21T02:53:10.287Z,76.20
2022-11-21T02:55:40.890Z,83.37
2022-11-21T02:58:09.097Z,81.53
2022-11-21T03:00:41.101Z,94.33
2022-11-21T03:03:15.672Z,83.70
2022-11-21T03:05:44.079Z,102.83
2022-11-21T03:08:12.965Z,104.80
2022-11-21T03:10:42.332Z,115.10
2022-11-21T03:13:10.404Z,108.93
2022-11-21T03:15:42.070Z,118.80
2022-11-21T03:18:10.951Z,116.90
2022-11-21T03:20:40.040Z,125.23
2022-11-21T03:23:08.956Z,136.70
2022-11-21T03:25:37.214Z,137.63
2022-11-21T03:28:10.133Z,126.93
2022-11-21T03:30:38.300Z,113.20
2022-11-21T03:33:06.351Z,124.77
2022-11-21T03:35:35.017Z,110.30
2022-11-21T03:38:03.026Z,109.90
2022-11-21T03:40:30.989Z,114.63
2022-11-21T03:43:05.088Z,111.30
2022-11-21T03:45:34.991Z,102.60
2022-11-21T03:48:03.389Z,110.13
2022-11-21T03:50:31.863Z,100.27
2022-11-21T03:53:00.015Z,94.67
2022-11-21T03:55:31.965Z,90.13
2022-11-21T03:58:00.995Z,86.30
2022-11-21T04:00:29.601Z,78.70
2022-11-21T04:02:59.399Z,73.40
2022-11-21T04:05:27.978Z,75.07
2022-11-21T04:07:58.990Z,77.40
2022-11-21T04:10:27.892Z,71.93
2022-11-21T04:12:56.086Z,74.93
2022-11-21T04:15:24.886Z,77.83
2022-11-21T04:17:53.159Z,74.03
2022-11-21T04:20:22.643Z,69.90
2022-11-21T04:22:50.991Z,74.07
2022-11-21T04:25:20.913Z,73.73
2022-11-21T04:27:48.984Z,80.03
2022-11-21T04:30:19.104Z,71.77
2022-11-21T04:32:47.657Z,79.37
2022-11-21T04:35:15.977Z,72.00
2022-11-21T04:37:49.306Z,74.97
2022-11-21T04:40:19.001Z,73.80
2022-11-21T04:42:48.984Z,76.33
2022-11-21T04:45:17.773Z,76.03
2022-11-21T04:47:51.487Z,72.37
2022-11-21T04:50:20.553Z,75.53
2022-11-21T04:52:53.124Z,78.67
2022-11-21T04:55:26.763Z,73.93
2022-11-21T04:57:54.981Z,75.90
2022-11-21T05:00:24.588Z,80.87
2022-11-21T05:02:53.671Z,76.13
2022-11-21T05:05:21.902Z,74.63
2022-11-21T05:07:53.997Z,83.00
2022-11-21T05:10:23.013Z,75.07
2022-11-21T05:13:18.761Z,77.57
2022-11-21T05:15:51.409Z,86.53
2022-11-21T05:18:23.055Z,78.57
2022-11-21T05:20:51.137Z,83.77
2022-11-21T05:23:21.010Z,90.27
2022-11-21T05:25:49.127Z,89.00
2022-11-21T05:28:17.173Z,86.77
2022-11-21T05:30:45.244Z,85.83
2022-11-21T05:33:13.928Z,81.17
2022-11-21T05:35:45.568Z,88.00
2022-11-21T05:38:14.047Z,88.97
2022-11-21T05:40:43.394Z,91.17
2022-11-21T05:43:33.460Z,89.20
2022-11-21T05:46:04.608Z,98.17
2022-11-21T05:48:34.899Z,92.83
2022-11-21T05:51:03.015Z,90.43
2022-11-21T05:53:31.118Z,88.17
2022-11-21T05:56:05.938Z,92.20
2022-11-21T05:58:34.208Z,90.80
2022-11-21T06:01:02.394Z,84.63
2022-11-21T06:03:32.980Z,94.67
2022-11-21T06:06:06.312Z,86.47
2022-11-21T06:08:36.878Z,97.80
2022-11-21T06:11:08.068Z,95.73
2022-11-21T06:13:38.614Z,92.90
2022-11-21T06:16:09.111Z,89.80
2022-11-21T06:18:40.063Z,94.13
2022-11-21T06:21:09.667Z,99.60
2022-11-21T06:23:39.095Z,93.03
2022-11-21T06:26:12.933Z,122.90
2022-11-21T06:28:42.516Z,104.67
2022-11-21T06:31:13.504Z,98.23
2022-11-21T06:33:44.576Z,94.70
2022-11-21T06:36:14.168Z,88.83
2022-11-21T06:38:43.025Z,94.30
2022-11-21T06:41:14.583Z,89.73
2022-11-21T06:43:44.050Z,96.80
2022-11-21T06:46:12.597Z,85.03
2022-11-21T06:48:41.496Z,95.87
2022-11-21T06:51:13.963Z,92.10
2022-11-21T06:53:43.018Z,81.67
2022-11-21T06:56:11.940Z,86.50
2022-11-21T06:58:41.408Z,80.33
2022-11-21T07:01:12.202Z,80.60
2022-11-21T07:03:41.029Z,79.50
2022-11-21T07:06:09.061Z,78.63
2022-11-21T07:08:40.744Z,76.90
2022-11-21T07:11:24.610Z,75.37
2022-11-21T07:13:54.973Z,82.10
2022-11-21T07:16:26.973Z,74.03
2022-11-21T07:18:55.581Z,76.90
2022-11-21T07:21:23.522Z,86.60
2022-11-21T07:23:52.036Z,80.70
2022-11-21T07:26:21.035Z,82.60
2022-11-21T07:28:50.093Z,77.93
2022-11-21T07:31:19.359Z,77.53
2022-11-21T07:33:48.279Z,77.83
2022-11-21T07:36:18.727Z,83.80
2022-11-21T07:38:47.563Z,73.57
2022-11-21T07:41:15.586Z,75.87
2022-11-21T07:43:43.972Z,74.40
2022-11-21T07:46:13.093Z,77.73
2022-11-21T07:48:43.078Z,77.17
2022-11-21T07:51:11.176Z,76.20
2022-11-21T07:53:40.350Z,82.17
2022-11-21T07:56:09.613Z,81.80
2022-11-21T07:58:37.878Z,74.60
2022-11-21T08:01:06.371Z,73.40
2022-11-21T08:03:37.391Z,78.80
2022-11-21T08:06:06.748Z,71.70
2022-11-21T08:08:36.100Z,74.20
2022-11-21T08:11:06.944Z,73.10
2022-11-21T08:13:36.041Z,75.53
2022-11-21T08:16:06.732Z,73.67
2022-11-21T08:18:38.096Z,69.73
2022-11-21T08:21:07.728Z,66.47
2022-11-21T08:23:36.027Z,77.67
2022-11-21T08:26:04.709Z,72.50
2022-11-21T08:28:34.668Z,79.00
2022-11-21T08:31:05.328Z,103.93
2022-11-21T08:33:33.953Z,74.63
2022-11-21T08:36:05.128Z,68.17
2022-11-21T08:38:35.068Z,65.80
2022-11-21T08:41:20.529Z,64.47
2022-11-21T08:43:48.561Z,62.07
2022-11-21T08:46:17.999Z,69.60
2022-11-21T08:48:47.050Z,71.33
2022-11-21T08:51:15.100Z,62.27
2022-11-21T08:53:49.170Z,59.87
2022-11-21T08:56:17.119Z,55.63
2022-11-21T08:58:45.766Z,58.00
2022-11-21T09:01:13.746Z,53.23
2022-11-21T09:03:43.071Z,58.07
2022-11-21T09:06:11.066Z,58.57
2022-11-21T09:08:42.215Z,53.67
2022-11-21T09:11:11.820Z,55.97
2022-11-21T09:13:40.061Z,56.27
2022-11-21T09:16:26.719Z,58.20
2022-11-21T09:18:58.164Z,71.90
2022-11-21T09:21:26.136Z,61.40
2022-11-21T09:23:54.718Z,60.67
2022-11-21T09:26:24.023Z,58.93
2022-11-21T09:28:53.096Z,63.40
2022-11-21T09:31:21.041Z,62.10
2022-11-21T09:33:54.967Z,53.47
2022-11-21T09:36:23.237Z,58.10
2022-11-21T09:38:54.088Z,63.13
2022-11-21T09:41:54.938Z,65.40
2022-11-21T09:44:57.071Z,57.20
2022-11-21T09:47:27.810Z,52.90
2022-11-21T09:49:59.921Z,53.93
2022-11-21T09:52:38.127Z,50.93
2022-11-21T09:55:08.935Z,58.30
2022-11-21T09:57:38.527Z,52.00
2022-11-21T10:00:20.714Z,48.63
2022-11-21T10:02:49.941Z,53.63
2022-11-21T10:05:21.430Z,51.67
2022-11-21T10:07:55.153Z,52.20
2022-11-21T10:10:34.541Z,50.50
2022-11-21T10:13:20.167Z,49.27
2022-11-21T10:15:58.998Z,56.37
2022-11-21T10:18:57.103Z,48.27
2022-11-21T10:21:48.512Z,54.33
2022-11-21T10:24:38.090Z,52.63
2022-11-21T10:27:13.012Z,44.40
2022-11-21T10:29:49.063Z,52.00
2022-11-21T10:32:25.003Z,48.23
2022-11-21T10:35:00.674Z,54.03
2022-11-21T10:37:34.181Z,48.83
2022-11-21T10:40:17.103Z,50.90
2022-11-21T10:42:53.308Z,53.67
2022-11-21T10:45:22.960Z,46.63
2022-11-21T10:47:57.202Z,43.50
2022-11-21T10:50:33.984Z,46.67
2022-11-21T10:53:32.648Z,46.43
2022-11-21T10:56:07.138Z,45.73
2022-11-21T10:58:41.322Z,44.13
2022-11-21T11:01:23.628Z,47.67
2022-11-21T11:04:27.652Z,44.77
2022-11-21T11:07:00.644Z,43.60
2022-11-21T11:09:33.053Z,46.97
2022-11-21T11:12:45.804Z,59.37
2022-11-21T11:15:20.422Z,44.07
2022-11-21T11:17:54.320Z,47.57
2022-11-21T11:20:35.364Z,40.70
2022-11-21T11:23:18.106Z,38.93
2022-11-21T11:25:49.200Z,38.53
2022-11-21T11:28:20.031Z,42.33
2022-11-21T11:30:49.019Z,38.23
2022-11-21T11:33:39.471Z,38.83
2022-11-21T11:36:16.405Z,37.67
2022-11-21T11:38:54.025Z,43.77
2022-11-21T11:42:06.435Z,45.77
2022-11-21T11:45:04.020Z,37.33
2022-11-21T11:47:50.251Z,38.70
2022-11-21T11:50:26.250Z,42.30
2022-11-21T11:53:02.979Z,48.87
2022-11-21T11:55:40.110Z,41.57
2022-11-21T11:58:14.073Z,53.17
2022-11-21T12:00:48.576Z,42.63
2022-11-21T12:03:21.161Z,43.27
2022-11-21T12:06:01.637Z,44.87
2022-11-21T12:08:42.606Z,44.83
2022-11-21T12:11:39.459Z,46.90
2022-11-21T12:14:38.597Z,50.43
2022-11-21T12:17:09.905Z,52.17
2022-11-21T12:19:40.443Z,48.93
2022-11-21T12:22:12.750Z,57.77
2022-11-21T12:24:43.213Z,52.33
2022-11-21T12:27:25.637Z,50.70
2022-11-21T12:30:16.166Z,50.53
2022-11-21T12:32:57.044Z,50.33
2022-11-21T12:35:48.536Z,54.77
2022-11-21T12:38:44.688Z,46.07
2022-11-21T12:41:39.035Z,44.27
2022-11-21T12:44:21.528Z,40.37
2022-11-21T12:47:02.615Z,35.77
2022-11-21T12:49:57.773Z,36.47
2022-11-21T12:52:47.231Z,35.73
2022-11-21T12:55:37.340Z,41.10
2022-11-21T12:58:24.576Z,39.33
2022-11-21T13:01:03.733Z,43.93
2022-11-21T13:03:45.238Z,40.80
2022-11-21T13:06:18.291Z,40.13
2022-11-21T13:08:51.660Z,39.87
2022-11-21T13:11:49.962Z,40.23
2022-11-21T13:14:27.302Z,40.27
2022-11-21T13:17:11.218Z,44.47
2022-11-21T13:19:48.102Z,43.23
2022-11-21T13:22:57.304Z,45.83
2022-11-21T13:25:41.778Z,52.03
2022-11-21T13:28:40.235Z,44.13
2022-11-21T13:31:31.817Z,40.03
2022-11-21T13:34:00.342Z,42.10
2022-11-21T13:36:44.034Z,45.37
2022-11-21T13:39:39.568Z,44.20
2022-11-21T13:42:33.132Z,48.93
2022-11-21T13:45:43.657Z,46.20
2022-11-21T13:48:47.138Z,47.97
2022-11-21T13:51:34.517Z,41.90
2022-11-21T13:54:25.175Z,43.93
2022-11-21T13:57:13.152Z,43.37
2022-11-21T13:59:57.273Z,44.47
2022-11-21T14:03:04.563Z,41.50
2022-11-21T14:06:00.731Z,40.23
2022-11-21T14:08:31.237Z,45.30
2022-11-21T14:10:59.459Z,40.47
2022-11-21T14:13:33.231Z,46.33
2022-11-21T14:16:17.163Z,50.30
2022-11-21T14:18:47.813Z,54.53
2022-11-21T14:21:22.923Z,49.50
2022-11-21T14:23:53.997Z,49.87
2022-11-21T14:26:26.050Z,54.13
2022-11-21T14:28:54.176Z,50.00
2022-11-21T14:31:25.587Z,55.97
2022-11-21T14:33:59.191Z,51.73
2022-11-21T14:36:29.397Z,57.57
2022-11-21T14:39:34.890Z,51.77
2022-11-21T14:41:52.548Z,54.27
2022-11-21T14:44:27.906Z,53.60
2022-11-21T14:47:10.048Z,50.90
2022-11-21T14:49:40.232Z,51.60
2022-11-21T14:52:18.423Z,55.63
2022-11-21T14:57:44.583Z,59.13
2022-11-21T15:03:17.978Z,59.53
2022-11-21T15:06:01.892Z,63.03
2022-11-21T15:11:36.096Z,57.37
2022-11-21T15:14:16.941Z,57.47
2022-11-21T15:16:48.231Z,57.93
2022-11-21T15:19:23.228Z,63.30
2022-11-21T15:21:55.192Z,61.83
2022-11-21T15:24:32.739Z,69.03
2022-11-21T15:27:00.978Z,58.20
2022-11-21T15:29:31.710Z,58.50
2022-11-21T15:32:15.818Z,57.87
2022-11-21T15:34:48.257Z,60.33
2022-11-21T15:37:19.220Z,62.83
2022-11-21T15:39:50.012Z,59.87
2022-11-21T15:42:37.542Z,59.80
2022-11-21T15:45:23.875Z,58.93
2022-11-21T15:47:51.959Z,63.87
2022-11-21T15:50:20.094Z,62.10
2022-11-21T15:52:52.521Z,64.00
2022-11-21T15:55:23.102Z,56.70
2022-11-21T15:57:51.220Z,60.13
2022-11-21T16:00:19.591Z,61.20
2022-11-21T16:02:47.708Z,62.43
2022-11-21T16:05:18.190Z,58.77
2022-11-21T16:07:48.555Z,60.80
2022-11-21T16:10:24.263Z,64.17
2022-11-21T16:12:57.312Z,61.10
2022-11-21T16:15:25.434Z,59.57
2022-11-21T16:17:54.311Z,62.03
2022-11-21T16:20:22.283Z,63.97
2022-11-21T16:22:51.215Z,61.80
2022-11-21T16:25:23.591Z,66.83
2022-11-21T16:27:51.573Z,63.27
2022-11-21T16:30:20.061Z,60.10
2022-11-21T16:32:48.045Z,59.00
2022-11-21T16:35:17.033Z,60.30
2022-11-21T16:37:45.215Z,59.87
2022-11-21T16:40:13.561Z,65.13
2022-11-21T16:42:43.006Z,64.53
2022-11-21T16:45:11.534Z,59.33
2022-11-21T16:47:48.546Z,59.27
2022-11-21T16:50:17.202Z,59.30
2022-11-21T16:52:45.298Z,62.67
2022-11-21T16:55:16.136Z,61.97
2022-11-21T16:57:45.492Z,59.73
2022-11-21T17:00:14.163Z,59.03
2022-11-21T17:02:42.228Z,65.53
2022-11-21T17:05:10.885Z,66.27
2022-11-21T17:07:39.031Z,62.07
2022-11-21T17:10:07.984Z,60.20
2022-11-21T17:12:38.979Z,62.10
2022-11-21T17:15:14.505Z,61.17
2022-11-21T17:17:45.947Z,62.70
2022-11-21T17:20:14.059Z,58.17
2022-11-21T17:22:42.034Z,63.73
2022-11-21T17:25:10.756Z,61.00
2022-11-21T17:27:42.057Z,62.73
2022-11-21T17:30:15.874Z,60.20
2022-11-21T17:32:43.951Z,58.87
2022-11-21T17:35:12.501Z,61.33
2022-11-21T17:37:40.856Z,64.27
2022-11-21T17:40:12.109Z,62.20
2022-11-21T17:42:43.376Z,58.60
2022-11-21T17:45:12.898Z,61.53
2022-11-21T17:47:42.084Z,60.83
2022-11-21T17:50:10.083Z,67.07
2022-11-21T17:52:39.777Z,63.40
2022-11-21T17:55:09.982Z,64.87
2022-11-21T17:57:37.964Z,59.23
2022-11-21T18:00:07.254Z,65.67
2022-11-21T18:02:37.626Z,63.23
2022-11-21T18:05:07.253Z,62.80
2022-11-21T18:07:38.694Z,73.30
2022-11-21T18:10:35.041Z,69.80
2022-11-21T18:12:56.298Z,62.63
2022-11-21T18:15:25.176Z,63.73
2022-11-21T18:17:54.712Z,62.13
2022-11-21T18:20:24.082Z,63.50
2022-11-21T18:22:53.002Z,65.00
2022-11-21T18:25:21.064Z,63.53
2022-11-21T18:27:54.661Z,66.80
2022-11-21T18:30:22.913Z,62.77
2022-11-21T18:32:52.040Z,62.27
2022-11-21T18:35:21.395Z,66.10
2022-11-21T18:37:50.248Z,64.37
2022-11-21T18:40:18.659Z,68.20
2022-11-21T18:43:14.446Z,73.33
2022-11-21T18:45:47.032Z,68.50
2022-11-21T18:48:17.078Z,64.87
2022-11-21T18:50:47.274Z,70.27
2022-11-21T18:53:15.350Z,63.43
2022-11-21T18:55:43.500Z,67.47
2022-11-21T18:58:11.465Z,64.53
2022-11-21T19:00:39.452Z,57.70
2022-11-21T19:03:07.518Z,60.37
2022-11-21T19:05:35.457Z,65.87
2022-11-21T19:08:04.906Z,61.07
2022-11-21T19:10:43.145Z,59.83
2022-11-21T19:13:11.875Z,67.10
2022-11-21T19:15:39.954Z,59.83
2022-11-21T19:18:07.912Z,57.77
2022-11-21T19:20:39.299Z,59.97
2022-11-21T19:23:10.433Z,61.60
2022-11-21T19:25:38.439Z,62.97
2022-11-21T19:28:06.551Z,65.30
2022-11-21T19:30:36.238Z,59.57
2022-11-21T19:33:08.382Z,64.33
2022-11-21T19:35:39.250Z,59.87
2022-11-21T19:38:08.760Z,58.73
2022-11-21T19:40:51.333Z,59.70
2022-11-21T19:43:22.431Z,59.70
2022-11-21T19:45:56.594Z,57.83
2022-11-21T19:48:26.073Z,56.90
2022-11-21T19:50:58.627Z,62.57
2022-11-21T19:53:33.487Z,57.97
2022-11-21T19:56:09.962Z,60.90
2022-11-21T19:58:38.303Z,58.40
2022-11-21T20:01:07.800Z,63.53
2022-11-21T20:03:36.243Z,62.50
2022-11-21T20:06:05.837Z,57.47
2022-11-21T20:08:38.155Z,58.47
2022-11-21T20:11:15.664Z,59.43
2022-11-21T20:13:46.283Z,57.10
2022-11-21T20:16:20.209Z,62.60
2022-11-21T20:18:53.441Z,60.90
2022-11-21T20:21:21.397Z,63.80
2022-11-21T20:23:51.281Z,61.97
2022-11-21T20:26:21.154Z,60.63
2022-11-21T20:28:51.247Z,57.10
2022-11-21T20:31:22.668Z,61.07
2022-11-21T20:33:52.469Z,59.30
2022-11-21T20:36:22.354Z,61.20
2022-11-21T20:38:54.687Z,62.13
2022-11-21T20:41:24.683Z,60.63
2022-11-21T20:44:46.680Z,57.93
2022-11-21T20:46:46.497Z,54.47
2022-11-21T20:49:15.295Z,61.33
2022-11-21T20:53:26.408Z,63.40
2022-11-21T20:54:33.559Z,56.63
2022-11-21T20:57:02.592Z,58.30
2022-11-21T20:59:30.798Z,55.80
2022-11-21T21:01:59.996Z,56.33
2022-11-21T21:04:27.987Z,56.07
2022-11-21T21:07:00.686Z,57.07
2022-11-21T21:09:31.175Z,58.60
2022-11-21T21:12:00.947Z,54.47
2022-11-21T21:14:29.047Z,56.73
2022-11-21T21:16:57.337Z,59.47
2022-11-21T21:19:27.658Z,58.23
2022-11-21T21:21:55.898Z,58.23
2022-11-21T21:24:24.322Z,55.77
2022-11-21T21:26:53.322Z,59.57
2022-11-21T21:29:23.277Z,57.53
2022-11-21T21:31:55.612Z,60.90
2022-11-21T21:34:27.630Z,63.10
2022-11-21T21:36:56.234Z,65.00
2022-11-21T21:39:25.155Z,85.50
2022-11-21T21:41:53.301Z,71.17
2022-11-21T21:44:28.308Z,71.73
2022-11-21T21:47:00.308Z,73.77
2022-11-21T21:49:31.607Z,69.17
2022-11-21T21:51:59.562Z,69.73
2022-11-21T21:54:28.605Z,69.97
2022-11-21T21:56:56.879Z,74.13
2022-11-21T21:59:26.656Z,70.70
2022-11-21T22:01:58.532Z,66.20
2022-11-21T22:04:26.744Z,65.50
2022-11-21T22:06:54.801Z,66.50
2022-11-21T22:09:23.277Z,64.47
2022-11-21T22:11:54.061Z,64.03
2022-11-21T22:14:22.158Z,63.57
2022-11-21T22:16:52.191Z,61.77
2022-11-21T22:19:21.327Z,66.70
2022-11-21T22:21:50.315Z,64.40
2022-11-21T22:24:27.135Z,65.10
2022-11-21T22:26:56.369Z,66.73
2022-11-21T22:29:26.614Z,64.07
2022-11-21T22:31:56.036Z,62.40
2022-11-21T22:34:25.122Z,65.03
2022-11-21T22:36:53.343Z,64.17
2022-11-21T22:39:23.542Z,64.87
2022-11-21T22:41:59.513Z,64.60
2022-11-21T22:44:31.383Z,65.13
2022-11-21T22:47:02.460Z,62.60
2022-11-21T22:49:30.590Z,67.43
2022-11-21T22:51:59.356Z,65.70
2022-11-21T22:54:28.032Z,70.27
2022-11-21T22:56:58.511Z,66.73
2022-11-21T22:59:26.541Z,68.33
2022-11-21T23:01:57.253Z,62.27
2022-11-21T23:04:27.493Z,64.07
2022-11-21T23:06:56.375Z,63.50
2022-11-21T23:09:28.383Z,67.83
2022-11-21T23:11:56.980Z,65.97
2022-11-21T23:14:25.397Z,62.40
2022-11-21T23:16:53.403Z,62.87
2022-11-21T23:19:21.349Z,63.43
2022-11-21T23:21:54.574Z,58.70
2022-11-21T23:24:22.553Z,60.23
2022-11-21T23:26:50.644Z,63.63
2022-11-21T23:29:18.670Z,64.00
2022-11-21T23:31:47.354Z,64.30
2022-11-21T23:34:16.334Z,61.77
2022-11-21T23:36:46.032Z,64.97
2022-11-21T23:39:16.379Z,61.00
2022-11-21T23:41:44.450Z,56.73
2022-11-21T23:44:14.668Z,65.10
2022-11-21T23:46:43.359Z,60.40
2022-11-21T23:49:11.491Z,59.03
2022-11-21T23:51:40.349Z,58.07
2022-11-21T23:54:10.540Z,55.20
2022-11-21T23:56:43.432Z,62.33
2022-11-21T23:59:11.772Z,56.97
